createdAt,value
2019-03-29T00:00:59.918Z,16.10
2019-03-29T00:03:29.320Z,17.15
2019-03-29T00:05:59.753Z,20.35
2019-03-29T00:08:29.154Z,16.90
2019-03-29T00:11:01.634Z,16.40
2019-03-29T00:13:34.195Z,20.12
2019-03-29T00:16:09.742Z,18.82
2019-03-29T00:18:41.293Z,20.02
2019-03-29T00:21:10.825Z,20.75
2019-03-29T00:23:49.032Z,17.25
2019-03-29T00:26:27.315Z,18.05
2019-03-29T00:29:03.185Z,14.90
2019-03-29T00:31:32.854Z,20.65
2019-03-29T00:34:04.318Z,17.80
2019-03-29T00:36:33.813Z,18.20
2019-03-29T00:39:06.893Z,18.00
2019-03-29T00:41:36.426Z,15.25
2019-03-29T00:44:21.242Z,16.07
2019-03-29T00:46:52.649Z,17.75
2019-03-29T00:49:23.993Z,17.15
2019-03-29T00:51:53.490Z,18.27
2019-03-29T00:54:28.010Z,16.30
2019-03-29T00:57:01.622Z,18.10
2019-03-29T00:59:31.066Z,19.62
2019-03-29T01:02:00.553Z,18.20
2019-03-29T01:04:37.166Z,17.73
2019-03-29T01:07:20.092Z,20.17
2019-03-29T01:09:52.670Z,22.25
2019-03-29T01:12:31.321Z,20.77
2019-03-29T01:15:24.713Z,18.15
2019-03-29T01:18:00.413Z,21.15
2019-03-29T01:20:33.070Z,18.77
2019-03-29T01:23:02.689Z,19.95
2019-03-29T01:25:40.021Z,21.10
2019-03-29T01:28:19.918Z,22.20
2019-03-29T01:30:49.381Z,22.87
2019-03-29T01:33:32.043Z,20.27
2019-03-29T01:36:16.652Z,20.75
2019-03-29T01:38:46.149Z,19.70
2019-03-29T01:41:20.701Z,18.12
2019-03-29T01:43:56.516Z,21.62
2019-03-29T01:46:29.370Z,19.73
2019-03-29T01:49:01.445Z,19.95
2019-03-29T01:51:32.893Z,20.62
2019-03-29T01:54:04.481Z,20.55
2019-03-29T01:57:01.060Z,20.32
2019-03-29T01:59:32.444Z,21.07
2019-03-29T02:02:02.987Z,21.23
2019-03-29T02:04:38.460Z,22.85
2019-03-29T02:07:07.940Z,20.72
2019-03-29T02:09:37.517Z,21.07
2019-03-29T02:12:13.887Z,20.37
2019-03-29T02:14:43.568Z,17.48
2019-03-29T02:17:14.033Z,24.00
2019-03-29T02:19:46.633Z,21.52
2019-03-29T02:22:16.030Z,21.62
2019-03-29T02:24:57.873Z,19.20
2019-03-29T02:27:27.454Z,23.67
2019-03-29T02:29:58.965Z,22.82
2019-03-29T02:32:28.356Z,23.40
2019-03-29T02:34:59.721Z,22.90
2019-03-29T02:37:32.438Z,22.40
2019-03-29T02:40:08.405Z,23.12
2019-03-29T02:42:37.889Z,23.80
2019-03-29T02:45:19.254Z,23.55
2019-03-29T02:47:48.853Z,22.58
2019-03-29T02:50:18.753Z,23.85
2019-03-29T02:52:57.489Z,27.30
2019-03-29T02:55:33.230Z,23.60
2019-03-29T02:58:04.789Z,20.20
2019-03-29T03:00:34.377Z,24.20
2019-03-29T03:03:06.969Z,25.00
2019-03-29T03:05:36.378Z,26.35
2019-03-29T03:08:18.832Z,26.48
2019-03-29T03:10:48.409Z,27.93
2019-03-29T03:13:24.912Z,26.02
2019-03-29T03:16:02.426Z,30.82
2019-03-29T03:18:32.046Z,29.10
2019-03-29T03:21:02.665Z,31.35
2019-03-29T03:23:50.372Z,30.50
2019-03-29T03:26:24.917Z,28.87
2019-03-29T03:28:57.523Z,30.17
2019-03-29T03:31:33.170Z,30.75
2019-03-29T03:34:02.905Z,33.35
2019-03-29T03:36:59.366Z,30.40
2019-03-29T03:39:32.183Z,30.82
2019-03-29T03:42:02.957Z,31.93
2019-03-29T03:44:37.397Z,34.75
2019-03-29T03:47:06.884Z,32.10
2019-03-29T03:49:39.636Z,32.00
2019-03-29T03:52:09.209Z,30.88
2019-03-29T03:54:48.893Z,33.75
2019-03-29T03:57:19.093Z,33.65
2019-03-29T03:59:50.627Z,33.40
2019-03-29T04:02:29.712Z,33.98
2019-03-29T04:05:01.225Z,34.60
2019-03-29T04:07:33.840Z,32.78
2019-03-29T04:10:09.536Z,35.55
2019-03-29T04:12:46.858Z,32.55
2019-03-29T04:15:22.186Z,32.95
2019-03-29T04:17:57.846Z,36.45
2019-03-29T04:20:33.413Z,33.15
2019-03-29T04:23:05.910Z,31.90
2019-03-29T04:25:35.312Z,32.90
2019-03-29T04:28:04.771Z,32.63
2019-03-29T04:30:34.212Z,36.50
2019-03-29T04:33:03.589Z,31.82
2019-03-29T04:35:41.898Z,33.80
2019-03-29T04:38:11.373Z,34.30
2019-03-29T04:40:43.885Z,37.00
2019-03-29T04:43:13.337Z,30.40
2019-03-29T04:45:43.156Z,31.40
2019-03-29T04:48:31.601Z,37.35
2019-03-29T04:51:02.240Z,34.90
2019-03-29T04:53:31.651Z,39.55
2019-03-29T04:56:04.528Z,32.15
2019-03-29T04:58:33.864Z,30.95
2019-03-29T05:01:03.233Z,35.17
2019-03-29T05:03:32.624Z,31.00
2019-03-29T05:06:02.049Z,31.87
2019-03-29T05:08:31.736Z,35.35
2019-03-29T05:11:01.469Z,30.30
2019-03-29T05:13:30.796Z,35.68
2019-03-29T05:16:00.296Z,35.23
2019-03-29T05:18:29.644Z,36.17
2019-03-29T05:20:59.000Z,32.75
2019-03-29T05:23:28.420Z,37.63
2019-03-29T05:25:57.831Z,34.27
2019-03-29T05:28:27.210Z,28.65
2019-03-29T05:30:56.580Z,30.92
2019-03-29T05:33:25.987Z,39.33
2019-03-29T05:35:55.412Z,37.80
2019-03-29T05:38:24.762Z,31.35
2019-03-29T05:40:54.186Z,35.80
2019-03-29T05:43:23.533Z,29.45
2019-03-29T05:45:53.107Z,33.05
2019-03-29T05:48:22.456Z,28.90
2019-03-29T05:50:51.848Z,32.50
2019-03-29T05:53:21.201Z,32.58
2019-03-29T05:55:52.649Z,33.40
2019-03-29T05:58:22.154Z,29.92
2019-03-29T06:00:55.168Z,27.58
2019-03-29T06:03:24.528Z,33.38
2019-03-29T06:05:53.877Z,32.00
2019-03-29T06:08:23.248Z,35.68
2019-03-29T06:10:52.588Z,30.08
2019-03-29T06:13:22.036Z,35.08
2019-03-29T06:15:51.381Z,31.27
2019-03-29T06:18:22.840Z,35.90
2019-03-29T06:20:52.290Z,32.20
2019-03-29T06:23:21.756Z,30.10
2019-03-29T06:25:51.284Z,32.48
2019-03-29T06:28:20.859Z,31.48
2019-03-29T06:30:56.180Z,32.38
2019-03-29T06:33:25.737Z,31.35
2019-03-29T06:36:00.019Z,33.73
2019-03-29T06:38:31.960Z,35.85
2019-03-29T06:41:04.748Z,36.30
2019-03-29T06:43:59.957Z,35.20
2019-03-29T06:46:29.365Z,36.10
2019-03-29T06:48:58.864Z,35.45
2019-03-29T06:51:28.330Z,34.58
2019-03-29T06:53:58.660Z,39.55
2019-03-29T06:56:28.434Z,33.23
2019-03-29T06:58:57.808Z,38.33
2019-03-29T07:01:27.228Z,36.42
2019-03-29T07:03:57.663Z,39.65
2019-03-29T07:06:30.535Z,34.08
2019-03-29T07:08:59.524Z,39.33
2019-03-29T07:11:28.981Z,29.90
2019-03-29T07:14:01.905Z,33.73
2019-03-29T07:16:37.161Z,36.40
2019-03-29T07:19:09.323Z,31.17
2019-03-29T07:21:38.678Z,34.03
2019-03-29T07:24:10.139Z,32.75
2019-03-29T07:26:39.516Z,34.58
2019-03-29T07:29:08.888Z,28.20
2019-03-29T07:31:52.988Z,31.80
2019-03-29T07:34:21.145Z,32.38
2019-03-29T07:36:52.481Z,28.98
2019-03-29T07:39:23.696Z,29.92
2019-03-29T07:41:55.331Z,30.02
2019-03-29T07:44:29.942Z,29.80
2019-03-29T07:47:08.357Z,28.52
2019-03-29T07:49:40.577Z,31.15
2019-03-29T07:52:12.376Z,30.37
2019-03-29T07:54:46.914Z,35.98
2019-03-29T07:57:16.540Z,35.52
2019-03-29T07:59:46.023Z,28.45
2019-03-29T08:02:34.913Z,33.70
2019-03-29T08:05:03.664Z,30.55
2019-03-29T08:07:33.551Z,31.73
2019-03-29T08:10:07.011Z,28.20
2019-03-29T08:12:43.498Z,30.10
2019-03-29T08:15:13.155Z,30.23
2019-03-29T08:17:48.501Z,31.00
2019-03-29T08:22:52.500Z,30.95
2019-03-29T08:25:21.911Z,26.60
2019-03-29T08:27:51.486Z,28.67
2019-03-29T08:30:20.968Z,30.90
2019-03-29T08:32:50.498Z,29.52
2019-03-29T08:35:20.049Z,30.30
2019-03-29T08:37:49.558Z,28.27
2019-03-29T08:40:19.139Z,31.12
2019-03-29T08:42:48.599Z,26.68
2019-03-29T08:45:18.159Z,34.13
2019-03-29T08:47:47.672Z,29.15
2019-03-29T08:50:17.119Z,26.25
2019-03-29T08:52:46.663Z,29.35
2019-03-29T08:55:17.733Z,31.00
2019-03-29T08:57:47.380Z,24.00
2019-03-29T09:00:22.367Z,28.15
2019-03-29T09:02:51.956Z,32.13
2019-03-29T09:05:21.475Z,26.50
2019-03-29T09:07:51.048Z,27.07
2019-03-29T09:10:25.005Z,28.77
2019-03-29T09:12:54.560Z,29.00
2019-03-29T09:15:24.141Z,27.33
2019-03-29T09:17:53.812Z,26.02
2019-03-29T09:20:24.350Z,27.77
2019-03-29T09:22:53.934Z,29.37
2019-03-29T09:25:23.576Z,27.13
2019-03-29T09:27:53.067Z,29.27
2019-03-29T09:30:22.636Z,32.33
2019-03-29T09:32:52.192Z,24.83
2019-03-29T09:35:21.677Z,27.60
2019-03-29T09:37:51.269Z,28.27
2019-03-29T09:40:20.891Z,23.03
2019-03-29T09:42:55.772Z,29.33
2019-03-29T09:45:21.663Z,24.77
2019-03-29T09:47:51.184Z,25.53
2019-03-29T09:50:22.943Z,26.43
2019-03-29T09:52:52.079Z,23.17
2019-03-29T09:55:21.592Z,20.93
2019-03-29T09:57:51.122Z,20.70
2019-03-29T10:00:23.293Z,20.17
2019-03-29T10:02:51.923Z,23.43
2019-03-29T10:05:21.515Z,21.70
2019-03-29T10:07:51.007Z,21.37
2019-03-29T10:10:20.580Z,21.90
2019-03-29T10:12:50.111Z,19.83
2019-03-29T10:15:19.626Z,18.67
2019-03-29T10:17:49.114Z,18.57
2019-03-29T10:20:18.699Z,19.37
2019-03-29T10:22:48.140Z,19.60
2019-03-29T10:25:20.157Z,19.97
2019-03-29T10:27:49.938Z,25.43
2019-03-29T10:30:36.410Z,20.83
2019-03-29T10:33:06.093Z,17.03
2019-03-29T10:35:50.169Z,17.33
2019-03-29T10:38:07.155Z,17.43
2019-03-29T10:40:36.645Z,16.37
2019-03-29T10:43:06.278Z,15.80
2019-03-29T10:45:39.957Z,20.87
2019-03-29T10:48:07.187Z,18.70
2019-03-29T10:50:36.668Z,16.47
2019-03-29T10:53:06.239Z,19.90
2019-03-29T10:55:38.944Z,16.50
2019-03-29T10:58:09.818Z,15.10
2019-03-29T11:00:44.070Z,16.10
2019-03-29T11:03:13.416Z,17.50
2019-03-29T11:05:43.073Z,19.10
2019-03-29T11:08:15.799Z,16.97
2019-03-29T11:10:47.255Z,19.07
2019-03-29T11:13:16.858Z,18.13
2019-03-29T11:15:49.170Z,17.27
2019-03-29T11:18:18.621Z,17.70
2019-03-29T11:20:48.288Z,16.17
2019-03-29T11:23:17.826Z,16.70
2019-03-29T11:25:48.777Z,16.93
2019-03-29T11:28:18.546Z,16.73
2019-03-29T11:30:48.014Z,16.50
2019-03-29T11:33:17.529Z,13.90
2019-03-29T11:35:47.069Z,16.30
2019-03-29T11:38:17.657Z,16.97
2019-03-29T11:40:47.042Z,17.43
2019-03-29T11:43:26.642Z,13.47
2019-03-29T11:45:49.197Z,20.87
2019-03-29T11:48:18.723Z,15.30
2019-03-29T11:50:48.283Z,17.30
2019-03-29T11:53:17.730Z,19.57
2019-03-29T11:55:47.411Z,15.53
2019-03-29T11:58:16.970Z,16.40
2019-03-29T12:00:46.362Z,15.77
2019-03-29T12:03:16.080Z,16.27
2019-03-29T12:05:45.554Z,17.90
2019-03-29T12:08:15.162Z,17.20
2019-03-29T12:10:44.879Z,17.37
2019-03-29T12:13:14.452Z,16.17
2019-03-29T12:15:46.065Z,17.27
2019-03-29T12:18:15.617Z,15.40
2019-03-29T12:20:46.196Z,15.20
2019-03-29T12:23:15.590Z,14.87
2019-03-29T12:25:45.876Z,16.03
2019-03-29T12:28:15.363Z,17.20
2019-03-29T12:30:45.174Z,19.50
2019-03-29T12:33:14.607Z,16.67
2019-03-29T12:35:45.059Z,16.23
2019-03-29T12:38:15.655Z,18.73
2019-03-29T12:40:46.162Z,16.80
2019-03-29T12:43:16.704Z,17.90
2019-03-29T12:45:46.283Z,16.27
2019-03-29T12:48:16.763Z,17.20
2019-03-29T12:50:46.326Z,18.47
2019-03-29T12:53:15.852Z,18.83
2019-03-29T12:55:45.367Z,16.47
2019-03-29T12:58:14.856Z,18.40
2019-03-29T13:00:44.350Z,19.47
2019-03-29T13:03:15.129Z,17.13
2019-03-29T13:05:44.807Z,19.00
2019-03-29T13:08:14.302Z,21.90
2019-03-29T13:10:43.858Z,18.20
2019-03-29T13:13:13.417Z,19.70
2019-03-29T13:15:44.023Z,17.20
2019-03-29T13:18:13.573Z,18.50
2019-03-29T13:20:44.195Z,20.70
2019-03-29T13:23:13.711Z,17.20
2019-03-29T13:25:43.279Z,15.10
2019-03-29T13:28:12.930Z,17.63
2019-03-29T13:30:43.378Z,15.97
2019-03-29T13:33:13.080Z,15.10
2019-03-29T13:35:44.524Z,18.83
2019-03-29T13:38:14.431Z,16.20
2019-03-29T13:40:44.082Z,17.63
2019-03-29T13:43:13.651Z,16.23
2019-03-29T13:45:43.234Z,19.40
2019-03-29T13:48:12.818Z,19.23
2019-03-29T13:50:42.264Z,17.40
2019-03-29T13:53:11.796Z,17.80
2019-03-29T13:55:41.340Z,17.50
2019-03-29T13:58:10.803Z,17.97
2019-03-29T14:00:40.414Z,16.90
2019-03-29T14:03:10.055Z,18.93
2019-03-29T14:05:40.713Z,20.07
2019-03-29T14:08:11.241Z,19.60
2019-03-29T14:10:41.807Z,19.77
2019-03-29T14:13:11.379Z,15.63
2019-03-29T14:15:42.018Z,19.10
2019-03-29T14:18:11.515Z,20.10
2019-03-29T14:20:42.061Z,19.70
2019-03-29T14:23:11.563Z,18.93
2019-03-29T14:25:41.076Z,19.43
2019-03-29T14:28:10.591Z,19.53
2019-03-29T14:30:42.218Z,22.20
2019-03-29T14:33:11.716Z,20.70
2019-03-29T14:35:42.187Z,20.90
2019-03-29T14:38:11.760Z,22.20
2019-03-29T14:40:42.309Z,20.47
2019-03-29T14:43:11.734Z,21.47
2019-03-29T14:45:41.237Z,20.07
2019-03-29T14:48:10.649Z,19.10
2019-03-29T14:50:40.138Z,20.87
2019-03-29T14:53:09.778Z,21.53
2019-03-29T14:55:39.382Z,19.77
2019-03-29T14:58:08.876Z,22.83
2019-03-29T15:00:42.875Z,20.07
2019-03-29T15:03:12.723Z,22.00
2019-03-29T15:05:43.445Z,18.20
2019-03-29T15:08:12.966Z,23.37
2019-03-29T15:10:45.656Z,23.70
2019-03-29T15:13:17.688Z,22.30
2019-03-29T15:15:47.112Z,20.10
2019-03-29T15:18:17.604Z,21.33
2019-03-29T15:20:53.692Z,19.83
2019-03-29T15:23:18.399Z,21.33
2019-03-29T15:25:47.883Z,21.57
2019-03-29T15:28:17.289Z,24.07
2019-03-29T15:30:46.814Z,20.80
2019-03-29T15:33:16.334Z,21.60
2019-03-29T15:35:45.823Z,23.00
2019-03-29T15:38:15.283Z,24.40
2019-03-29T15:40:44.878Z,24.23
2019-03-29T15:43:14.523Z,23.37
2019-03-29T15:45:45.078Z,21.63
2019-03-29T15:48:15.548Z,23.83
2019-03-29T15:50:46.191Z,20.80
2019-03-29T15:53:15.784Z,24.10
2019-03-29T15:55:47.359Z,22.77
2019-03-29T15:58:16.877Z,20.93
2019-03-29T16:00:47.757Z,20.70
2019-03-29T16:03:17.326Z,22.23
2019-03-29T16:05:48.592Z,21.90
2019-03-29T16:08:19.398Z,21.10
2019-03-29T16:10:49.017Z,21.73
2019-03-29T16:13:18.632Z,23.40
2019-03-29T16:15:48.281Z,22.00
2019-03-29T16:18:18.886Z,21.37
2019-03-29T16:20:48.331Z,20.20
2019-03-29T16:23:18.915Z,21.53
2019-03-29T16:25:48.365Z,22.20
2019-03-29T16:28:18.010Z,20.40
2019-03-29T16:30:47.569Z,20.90
2019-03-29T16:33:17.056Z,26.40
2019-03-29T16:35:48.527Z,24.83
2019-03-29T16:38:18.106Z,24.27
2019-03-29T16:40:47.829Z,21.90
2019-03-29T16:43:17.413Z,22.40
2019-03-29T16:45:48.520Z,21.53
2019-03-29T16:48:18.232Z,21.37
2019-03-29T16:50:52.254Z,23.10
2019-03-29T16:53:21.557Z,22.63
2019-03-29T16:55:51.070Z,22.67
2019-03-29T16:58:21.529Z,22.23
2019-03-29T17:00:51.103Z,30.70
2019-03-29T17:03:22.419Z,24.67
2019-03-29T17:05:52.043Z,22.67
2019-03-29T17:08:21.694Z,23.33
2019-03-29T17:10:51.514Z,22.00
2019-03-29T17:13:21.998Z,24.00
2019-03-29T17:16:01.636Z,22.67
2019-03-29T17:18:29.060Z,22.47
2019-03-29T17:20:55.516Z,21.37
2019-03-29T17:23:25.197Z,22.23
2019-03-29T17:25:54.920Z,22.03
2019-03-29T17:28:24.669Z,22.10
2019-03-29T17:30:56.925Z,22.40
2019-03-29T17:33:26.455Z,22.93
2019-03-29T17:35:58.668Z,22.30
2019-03-29T17:38:28.360Z,22.00
2019-03-29T17:40:58.126Z,23.70
2019-03-29T17:43:27.590Z,24.00
2019-03-29T17:45:58.130Z,21.30
2019-03-29T17:48:27.607Z,21.77
2019-03-29T17:50:57.240Z,19.40
2019-03-29T17:53:26.812Z,22.23
2019-03-29T17:55:56.435Z,23.70
2019-03-29T17:58:25.941Z,24.13
2019-03-29T18:00:55.444Z,26.00
2019-03-29T18:03:25.037Z,39.10
2019-03-29T18:05:56.563Z,42.63
2019-03-29T18:08:26.021Z,38.37
2019-03-29T18:10:56.476Z,30.40
2019-03-29T18:13:30.226Z,28.63
2019-03-29T18:15:59.707Z,28.73
2019-03-29T18:18:29.405Z,26.57
2019-03-29T18:20:58.958Z,21.30
2019-03-29T18:23:28.776Z,27.47
2019-03-29T18:25:59.058Z,28.40
2019-03-29T18:28:28.635Z,27.33
2019-03-29T18:30:58.251Z,21.40
2019-03-29T18:33:28.856Z,22.93
2019-03-29T18:35:58.689Z,25.33
2019-03-29T18:38:32.224Z,22.40
2019-03-29T18:41:01.799Z,24.07
2019-03-29T18:43:31.499Z,23.37
2019-03-29T18:46:01.070Z,26.80
2019-03-29T18:48:30.603Z,24.80
2019-03-29T18:51:00.223Z,27.58
2019-03-29T18:53:29.779Z,26.60
2019-03-29T18:55:59.398Z,23.57
2019-03-29T18:58:29.066Z,22.55
2019-03-29T19:00:58.670Z,21.93
2019-03-29T19:03:28.231Z,23.37
2019-03-29T19:05:57.757Z,25.17
2019-03-29T19:08:27.271Z,23.45
2019-03-29T19:10:56.806Z,27.35
2019-03-29T19:13:26.285Z,30.10
2019-03-29T19:15:55.921Z,24.07
2019-03-29T19:18:25.520Z,26.48
2019-03-29T19:20:55.171Z,24.85
2019-03-29T19:23:24.832Z,24.32
2019-03-29T19:25:54.286Z,23.32
2019-03-29T19:28:23.957Z,26.05
2019-03-29T19:30:55.545Z,24.55
2019-03-29T19:33:25.045Z,29.67
2019-03-29T19:35:54.546Z,25.97
2019-03-29T19:38:24.140Z,25.40
2019-03-29T19:40:54.490Z,25.05
2019-03-29T19:43:24.005Z,24.43
2019-03-29T19:45:53.533Z,24.70
2019-03-29T19:48:23.178Z,27.40
2019-03-29T19:50:52.639Z,30.55
2019-03-29T19:53:22.214Z,24.90
2019-03-29T19:55:51.920Z,28.62
2019-03-29T19:58:21.611Z,22.67
2019-03-29T20:00:51.141Z,28.25
2019-03-29T20:03:20.869Z,26.90
2019-03-29T20:05:50.386Z,28.75
2019-03-29T20:08:20.914Z,26.30
2019-03-29T20:10:51.510Z,28.90
2019-03-29T20:13:21.272Z,28.45
2019-03-29T20:15:50.847Z,33.50
2019-03-29T20:18:20.447Z,25.85
2019-03-29T20:20:51.897Z,33.95
2019-03-29T20:23:21.345Z,34.63
2019-03-29T20:25:50.818Z,30.02
2019-03-29T20:28:21.338Z,27.35
2019-03-29T20:30:50.919Z,26.27
2019-03-29T20:33:20.596Z,28.57
2019-03-29T20:35:52.173Z,28.35
2019-03-29T20:38:21.790Z,26.97
2019-03-29T20:40:52.370Z,31.80
2019-03-29T20:43:22.870Z,29.52
2019-03-29T20:45:52.508Z,25.82
2019-03-29T20:48:22.179Z,31.23
2019-03-29T20:50:52.521Z,29.15
2019-03-29T20:53:23.170Z,31.35
2019-03-29T20:55:58.146Z,31.20
2019-03-29T20:58:26.095Z,32.88
2019-03-29T21:00:55.733Z,25.48
2019-03-29T21:03:25.431Z,29.20
2019-03-29T21:05:55.169Z,33.90
2019-03-29T21:08:25.866Z,31.00
2019-03-29T21:10:56.590Z,28.70
2019-03-29T21:13:27.540Z,28.90
2019-03-29T21:15:57.183Z,27.95
2019-03-29T21:18:30.693Z,29.37
2019-03-29T21:21:00.438Z,29.48
2019-03-29T21:23:29.967Z,28.73
2019-03-29T21:25:59.836Z,31.82
2019-03-29T21:28:29.762Z,32.20
2019-03-29T21:30:59.438Z,33.65
2019-03-29T21:33:28.958Z,29.52
2019-03-29T21:35:59.595Z,29.10
2019-03-29T21:38:30.338Z,30.25
2019-03-29T21:41:00.832Z,35.05
2019-03-29T21:43:30.480Z,28.65
2019-03-29T21:46:02.213Z,29.07
2019-03-29T21:48:31.980Z,29.27
2019-03-29T21:51:02.437Z,27.27
2019-03-29T21:53:32.209Z,26.77
2019-03-29T21:56:01.816Z,30.65
2019-03-29T21:58:31.397Z,33.00
2019-03-29T22:01:00.935Z,28.38
2019-03-29T22:03:30.580Z,30.37
2019-03-29T22:06:00.173Z,31.48
2019-03-29T22:08:29.862Z,36.83
2019-03-29T22:10:59.504Z,32.28
2019-03-29T22:13:29.212Z,29.12
2019-03-29T22:16:00.786Z,33.75
2019-03-29T22:18:37.712Z,28.77
2019-03-29T22:21:01.912Z,28.45
2019-03-29T22:23:32.646Z,30.23
2019-03-29T22:26:03.397Z,32.98
2019-03-29T22:28:33.042Z,25.92
2019-03-29T22:31:03.696Z,28.47
2019-03-29T22:33:34.249Z,29.40
2019-03-29T22:36:03.941Z,28.27
2019-03-29T22:38:33.530Z,25.25
2019-03-29T22:41:03.144Z,28.77
2019-03-29T22:43:33.759Z,31.77
2019-03-29T22:46:07.299Z,30.12
2019-03-29T22:49:08.169Z,31.20
2019-03-29T22:51:53.568Z,33.35
2019-03-29T22:54:58.107Z,29.77
2019-03-29T22:57:46.703Z,27.52
2019-03-29T23:00:22.336Z,31.62
2019-03-29T23:02:52.030Z,34.90
2019-03-29T23:05:21.793Z,29.35
2019-03-29T23:07:52.496Z,37.30
2019-03-29T23:10:22.181Z,32.08
2019-03-29T23:12:53.869Z,34.15
2019-03-29T23:15:41.230Z,31.65
2019-03-29T23:18:19.876Z,28.62
2019-03-29T23:20:49.534Z,41.88
2019-03-29T23:23:19.142Z,31.37
2019-03-29T23:25:49.678Z,32.58
2019-03-29T23:28:19.226Z,30.92
2019-03-29T23:30:48.746Z,28.02
2019-03-29T23:33:18.468Z,30.10
2019-03-29T23:35:55.987Z,29.00
2019-03-29T23:38:25.719Z,32.48
2019-03-29T23:40:57.044Z,30.32
2019-03-29T23:43:27.498Z,29.12
2019-03-29T23:46:31.538Z,31.02
2019-03-29T23:49:02.479Z,34.13
2019-03-29T23:51:33.290Z,30.45
2019-03-29T23:54:04.444Z,33.02
2019-03-29T23:56:34.431Z,31.35
2019-03-29T23:59:04.575Z,29.30
